createdAt,value
2022-11-19T00:02:58.596Z,97.5
2022-11-19T00:08:04.740Z,97.5
2022-11-19T00:13:10.952Z,97.5
2022-11-19T00:18:17.163Z,97.5
2022-11-19T00:23:23.372Z,97.5
2022-11-19T00:28:29.573Z,97.5
2022-11-19T00:33:35.785Z,97.5
2022-11-19T00:38:41.997Z,97.5
2022-11-19T00:43:48.758Z,97.5
2022-11-19T00:48:54.401Z,97.5
2022-11-19T00:54:00.612Z,97.5
2022-11-19T00:59:06.820Z,97.0
2022-11-19T01:04:13.022Z,97.0
2022-11-19T01:09:19.630Z,97.0
2022-11-19T01:14:25.454Z,97.0
2022-11-19T01:19:30.675Z,97.0
2022-11-19T01:24:36.886Z,97.0
2022-11-19T01:29:42.117Z,97.0
2022-11-19T01:34:48.322Z,97.0
2022-11-19T01:39:54.533Z,97.0
2022-11-19T01:45:00.738Z,97.0
2022-11-19T01:50:06.951Z,96.5
2022-11-19T01:55:13.151Z,96.5
2022-11-19T02:00:19.360Z,96.5
2022-11-19T02:05:25.564Z,96.5
2022-11-19T02:10:31.774Z,96.5
2022-11-19T02:15:37.986Z,96.5
2022-11-19T02:20:44.206Z,96.5
2022-11-19T02:25:50.406Z,96.5
2022-11-19T02:30:56.606Z,96.5
2022-11-19T02:36:02.809Z,96.5
2022-11-19T02:41:09.020Z,96.0
2022-11-19T02:46:15.229Z,96.5
2022-11-19T02:51:21.431Z,96.0
2022-11-19T02:56:27.638Z,96.0
2022-11-19T03:01:33.926Z,96.0
2022-11-19T03:06:40.066Z,96.0
2022-11-19T03:11:46.284Z,96.0
2022-11-19T03:16:51.494Z,96.0
2022-11-19T03:21:57.703Z,96.0
2022-11-19T03:27:03.904Z,96.0
2022-11-19T03:32:09.147Z,96.0
2022-11-19T03:37:15.383Z,96.0
2022-11-19T03:42:21.557Z,96.0
2022-11-19T03:47:27.769Z,95.5
2022-11-19T03:52:33.972Z,95.5
2022-11-19T03:57:40.194Z,96.0
2022-11-19T04:02:46.385Z,96.0
2022-11-19T04:07:52.599Z,95.5
2022-11-19T04:12:58.875Z,95.5
2022-11-19T04:18:05.021Z,95.5
2022-11-19T04:23:11.211Z,95.5
2022-11-19T04:28:17.433Z,95.5
2022-11-19T04:33:23.639Z,95.5
2022-11-19T04:38:29.848Z,95.5
2022-11-19T04:43:36.045Z,95.5
2022-11-19T04:48:42.252Z,95.5
2022-11-19T04:53:48.464Z,95.0
2022-11-19T04:58:54.669Z,95.0
2022-11-19T05:04:00.876Z,95.0
2022-11-19T05:09:07.092Z,95.0
2022-11-19T05:14:13.306Z,95.0
2022-11-19T05:19:18.866Z,95.0
2022-11-19T05:24:24.743Z,95.0
2022-11-19T05:29:29.986Z,95.0
2022-11-19T05:34:36.180Z,95.0
2022-11-19T05:39:42.390Z,95.0
2022-11-19T05:44:48.591Z,95.0
2022-11-19T05:49:54.797Z,94.5
2022-11-19T05:55:01.018Z,94.5
2022-11-19T06:00:07.219Z,94.5
2022-11-19T06:05:13.445Z,94.5
2022-11-19T06:10:19.711Z,94.5
2022-11-19T06:15:25.838Z,94.5
2022-11-19T06:20:32.044Z,94.5
2022-11-19T06:25:38.248Z,94.5
2022-11-19T06:30:44.458Z,94.5
2022-11-19T06:35:50.669Z,94.5
2022-11-19T06:40:56.866Z,94.5
2022-11-19T06:46:03.085Z,94.5
2022-11-19T06:51:09.291Z,94.5
2022-11-19T06:56:15.491Z,94.5
2022-11-19T07:01:21.727Z,94.5
2022-11-19T07:06:27.913Z,94.0
2022-11-19T07:11:34.120Z,94.0
2022-11-19T07:16:39.347Z,94.0
2022-11-19T07:21:45.555Z,94.0
2022-11-19T07:26:51.761Z,94.0
2022-11-19T07:31:57.971Z,93.5
2022-11-19T07:42:09.546Z,94.0
2022-11-19T07:47:14.642Z,94.0
2022-11-19T07:52:20.856Z,93.5
2022-11-19T07:57:30.287Z,93.5
2022-11-19T08:02:33.271Z,93.5
2022-11-19T08:07:39.570Z,93.5
2022-11-19T08:12:45.684Z,93.5
2022-11-19T08:17:51.889Z,93.5
2022-11-19T08:22:58.103Z,93.5
2022-11-19T08:28:04.306Z,93.5
2022-11-19T08:33:10.515Z,93.5
2022-11-19T08:38:16.726Z,93.5
2022-11-19T08:43:22.942Z,93.5
2022-11-19T08:48:29.149Z,93.0
2022-11-19T08:53:35.342Z,93.0
2022-11-19T08:58:41.552Z,93.0
2022-11-19T09:03:47.757Z,93.0
2022-11-19T09:08:53.960Z,93.0
2022-11-19T09:14:00.181Z,93.0
2022-11-19T09:19:06.383Z,93.0
2022-11-19T09:24:12.588Z,93.0
2022-11-19T09:29:18.787Z,93.0
2022-11-19T09:34:24.033Z,92.5
2022-11-19T09:39:30.234Z,92.5
2022-11-19T09:44:35.473Z,92.5
2022-11-19T09:49:41.695Z,92.0
2022-11-19T09:54:47.885Z,92.0
2022-11-19T09:59:54.089Z,92.0
2022-11-19T10:05:00.302Z,92.0
2022-11-19T10:10:10.839Z,92.0
2022-11-19T10:15:12.886Z,92.0
2022-11-19T10:20:19.015Z,92.0
2022-11-19T10:25:25.128Z,92.0
2022-11-19T10:30:31.352Z,92.0
2022-11-19T10:35:37.543Z,92.0
2022-11-19T10:40:43.746Z,92.0
2022-11-19T10:45:49.951Z,91.5
2022-11-19T10:50:56.161Z,92.0
2022-11-19T10:56:02.368Z,91.5
2022-11-19T11:01:08.643Z,91.5
2022-11-19T11:06:14.794Z,91.5
2022-11-19T11:11:20.991Z,91.5
2022-11-19T11:16:27.203Z,91.5
2022-11-19T11:21:33.410Z,91.5
2022-11-19T11:26:39.613Z,92.0
2022-11-19T11:31:44.859Z,92.0
2022-11-19T11:36:51.054Z,92.0
2022-11-19T11:42:07.079Z,92.0
2022-11-19T11:47:02.501Z,92.0
2022-11-19T11:52:08.708Z,91.5
2022-11-19T11:57:14.916Z,91.5
2022-11-19T12:02:21.257Z,92.0
2022-11-19T12:07:27.359Z,92.0
2022-11-19T12:12:33.541Z,92.0
2022-11-19T12:17:39.743Z,92.0
2022-11-19T12:22:45.955Z,91.5
2022-11-19T12:27:52.156Z,91.0
2022-11-19T12:32:58.382Z,91.0
2022-11-19T12:38:04.564Z,91.0
2022-11-19T12:43:10.779Z,91.0
2022-11-19T12:48:16.981Z,90.5
2022-11-19T12:53:23.367Z,90.5
2022-11-19T12:58:29.394Z,90.5
2022-11-19T13:03:35.604Z,90.5
2022-11-19T13:08:41.811Z,90.5
2022-11-19T13:13:48.015Z,90.0
2022-11-19T13:18:54.227Z,90.0
2022-11-19T13:24:00.431Z,90.0
2022-11-19T13:29:05.680Z,90.0
2022-11-19T13:34:11.881Z,89.5
2022-11-19T13:39:18.391Z,89.5
2022-11-19T13:44:24.291Z,89.5
2022-11-19T13:49:30.497Z,89.5
2022-11-19T13:54:36.710Z,89.5
2022-11-19T13:59:42.921Z,89.0
2022-11-19T14:04:49.119Z,88.5
2022-11-19T14:09:55.341Z,88.5
2022-11-19T14:15:01.538Z,88.5
2022-11-19T14:20:07.747Z,89.0
2022-11-19T14:25:13.956Z,89.0
2022-11-19T14:30:20.176Z,88.5
2022-11-19T14:35:26.371Z,88.5
2022-11-19T14:40:32.860Z,88.5
2022-11-19T14:45:38.784Z,88.5
2022-11-19T14:50:44.994Z,88.5
2022-11-19T14:55:51.197Z,88.5
2022-11-19T15:00:57.402Z,88.5
2022-11-19T15:06:03.608Z,88.5
2022-11-19T15:11:09.823Z,88.0
2022-11-19T15:16:15.054Z,88.0
2022-11-19T15:21:21.263Z,88.0
2022-11-19T15:26:26.492Z,87.5
2022-11-19T15:31:32.704Z,87.5
2022-11-19T15:36:37.940Z,87.5
2022-11-19T15:41:44.153Z,87.5
2022-11-19T15:46:50.353Z,87.5
2022-11-19T15:51:56.560Z,87.5
2022-11-19T15:57:02.781Z,87.5
2022-11-19T16:02:08.978Z,87.0
2022-11-19T16:07:15.227Z,87.0
2022-11-19T16:12:21.391Z,87.0
2022-11-19T16:17:27.596Z,86.5
2022-11-19T16:22:33.805Z,86.5
2022-11-19T16:27:40.020Z,86.5
2022-11-19T16:32:46.219Z,86.5
2022-11-19T16:37:52.428Z,86.0
2022-11-19T16:42:58.632Z,86.0
2022-11-19T16:48:04.839Z,86.0
2022-11-19T16:53:11.058Z,86.0
2022-11-19T16:58:17.256Z,85.5
2022-11-19T17:03:23.458Z,85.5
2022-11-19T17:08:29.662Z,85.5
2022-11-19T17:13:35.882Z,85.5
2022-11-19T17:18:42.085Z,85.5
2022-11-19T17:23:47.318Z,85.0
2022-11-19T17:28:53.528Z,85.0
2022-11-19T17:33:58.754Z,85.0
2022-11-19T17:39:04.966Z,84.5
2022-11-19T17:44:11.183Z,84.5
2022-11-19T17:49:17.386Z,84.5
2022-11-19T17:54:23.801Z,84.5
2022-11-19T17:59:29.800Z,84.0
2022-11-19T18:04:36.005Z,84.5
2022-11-19T18:09:42.225Z,84.5
2022-11-19T18:14:48.419Z,84.5
2022-11-19T18:19:54.618Z,84.5
2022-11-19T18:25:00.828Z,84.5
2022-11-19T18:30:07.201Z,84.5
2022-11-19T18:35:13.256Z,84.5
2022-11-19T18:40:19.463Z,84.5
2022-11-19T18:45:25.652Z,84.5
2022-11-19T18:50:31.866Z,84.5
2022-11-19T18:55:38.077Z,84.5
2022-11-19T19:00:44.276Z,84.5
2022-11-19T19:05:50.486Z,84.5
2022-11-19T19:10:56.691Z,84.5
2022-11-19T19:16:02.915Z,84.5
2022-11-19T19:21:08.144Z,85.0
2022-11-19T19:26:14.349Z,85.0
2022-11-19T19:31:19.584Z,85.0
2022-11-19T19:36:25.921Z,85.5
2022-11-19T19:41:32.028Z,85.5
2022-11-19T19:56:50.625Z,86.0
2022-11-19T20:01:56.907Z,86.0
2022-11-19T20:07:03.054Z,86.0
2022-11-19T20:12:09.238Z,86.0
2022-11-19T20:17:15.449Z,86.0
2022-11-19T20:22:21.666Z,86.0
2022-11-19T20:27:27.864Z,86.0
2022-11-19T20:32:34.068Z,86.0
2022-11-19T20:37:39.303Z,86.0
2022-11-19T20:42:51.628Z,86.0
2022-11-19T20:48:03.952Z,86.5
2022-11-19T20:53:16.278Z,86.5
2022-11-19T20:58:28.607Z,86.0
2022-11-19T21:03:40.923Z,86.5
2022-11-19T21:08:52.273Z,86.5
2022-11-19T21:13:58.481Z,86.5
2022-11-19T21:19:04.691Z,86.5
2022-11-19T21:24:10.899Z,86.5
2022-11-19T21:29:17.102Z,120.0
2022-11-19T21:34:23.316Z,86.5
2022-11-19T21:39:29.516Z,86.5
2022-11-19T21:44:35.728Z,86.5
2022-11-19T21:49:41.932Z,86.5
2022-11-19T21:54:48.150Z,86.5
2022-11-19T21:59:54.353Z,86.5
2022-11-19T22:05:00.557Z,87.0
2022-11-19T22:10:06.764Z,87.0
2022-11-19T22:15:12.964Z,87.0
2022-11-19T22:20:19.165Z,87.0
2022-11-19T22:25:25.378Z,87.0
2022-11-19T22:30:31.585Z,87.0
2022-11-19T22:35:37.790Z,87.0
2022-11-19T22:40:43.996Z,87.5
2022-11-19T22:45:50.208Z,87.5
2022-11-19T22:50:56.407Z,87.5
2022-11-19T22:56:01.661Z,87.5
2022-11-19T23:01:08.009Z,87.5
2022-11-19T23:06:14.052Z,87.5
2022-11-19T23:11:19.318Z,87.5
2022-11-19T23:16:25.506Z,87.5
2022-11-19T23:21:31.706Z,87.5
2022-11-19T23:26:37.918Z,87.5
2022-11-19T23:31:44.136Z,87.5
2022-11-19T23:36:50.335Z,87.5
2022-11-19T23:41:56.530Z,87.5
2022-11-19T23:47:02.740Z,87.5
2022-11-19T23:52:08.943Z,88.0
2022-11-19T23:57:15.254Z,88.0
